CST,Max TemperatureF,Mean TemperatureF,Min TemperatureF,Max Dew PointF,MeanDew PointF,Min DewpointF,Max Humidity, Mean Humidity, Min Humidity, Max Sea Level PressureIn, Mean Sea Level PressureIn, Min Sea Level PressureIn, Max VisibilityMiles, Mean VisibilityMiles, Min VisibilityMiles, Max Wind SpeedMPH, Mean Wind SpeedMPH, Max Gust SpeedMPH,PrecipitationIn, CloudCover, Events, WindDirDegrees
2011-12-1,53,40,26,39,32,27,100,87,51,30.38,30.32,30.23,10,6,0,5,0,,0.00,4,Fog-Snow,69
2011-12-2,57,42,28,43,33,27,100,83,48,30.49,30.43,30.36,10,6,0,6,0,,0.00,3,Fog,177
2011-12-3,64,47,30,43,35,30,100,73,34,30.49,30.44,30.37,10,8,5,6,1,,0.00,0,,173
2011-12-4,66,50,33,48,41,34,100,72,45,30.38,30.31,30.24,10,10,5,9,1,21,0.00,1,,189
2011-12-5,69,56,42,59,51,43,100,80,53,30.19,30.10,29.98,10,9,4,10,1,,0.16,3,Rain,189
2011-12-6,60,56,51,61,56,50,100,96,94,30.02,30.00,29.97,10,8,0,9,2,,0.48,8,Rain,79
2011-12-7,46,40,33,46,38,28,100,92,75,30.22,29.97,29.81,10,9,2,15,3,28,0.24,8,Rain,352
2011-12-8,48,38,28,34,30,27,100,80,46,30.34,30.28,30.22,10,10,5,5,1,,0.00,1,,118
2011-12-9,51,38,26,37,32,27,100,85,50,30.32,30.27,30.21,10,7,0,7,1,,0.00,2,Fog,207
2011-12-10,44,36,28,34,28,21,100,74,39,30.50,30.43,30.32,10,10,4,12,2,,0.00,3,,1
2011-12-11,51,36,21,30,24,19,100,75,35,30.55,30.49,30.42,10,10,7,4,0,,0.00,0,,150
2011-12-12,53,40,26,37,31,27,100,75,44,30.49,30.44,30.40,10,10,7,5,0,,0.00,6,,80
2011-12-13,55,50,44,48,44,39,88,80,76,30.50,30.44,30.39,10,10,4,6,0,,0.00,8,,176
2011-12-14,66,55,44,54,50,45,100,82,64,30.37,30.28,30.14,10,10,7,9,2,,0.00,3,,180
2011-12-15,64,60,55,61,54,34,100,80,39,30.50,30.11,30.04,10,10,4,18,7,37,0.01,4,Rain,202
2011-12-16,55,46,37,55,44,36,100,95,76,30.29,30.23,30.15,10,9,4,9,3,16,0.14,7,Rain,15
2011-12-17,44,37,30,36,31,28,100,77,53,30.34,30.29,30.24,10,10,7,8,4,,0.00,4,,352
2011-12-18,51,42,32,36,33,30,100,79,47,30.37,30.32,30.28,10,10,5,8,1,,0.00,3,,314
2011-12-19,57,42,28,37,33,28,100,73,41,30.28,30.22,30.16,10,9,7,12,2,16,0.00,1,,179
2011-12-20,60,50,39,54,45,32,93,78,61,30.18,30.09,30.00,10,10,1,13,2,20,0.00,6,Rain,175
2011-12-21,66,54,42,59,51,43,100,88,56,30.02,29.93,29.84,10,7,0,17,4,24,0.32,4,Fog-Rain-Thunderstorm,212
2011-12-22,60,51,42,55,47,41,100,94,72,30.08,30.00,29.84,10,7,0,14,1,22,0.68,6,Fog-Rain,338
2011-12-23,48,46,44,46,44,39,100,91,81,30.32,30.23,30.10,10,9,4,10,2,,0.00,8,Rain,328
2011-12-24,50,42,33,37,35,34,100,80,54,30.46,30.40,30.35,10,10,7,7,2,,0.00,3,,209
2011-12-25,57,44,30,37,32,25,100,80,29,30.39,30.31,30.21,10,9,5,8,0,,0.00,1,,198
2011-12-26,48,37,26,36,31,27,100,76,54,30.40,30.30,30.16,10,10,10,6,1,,0.00,0,,156
2011-12-27,51,45,39,46,40,36,100,89,71,29.96,29.75,29.58,10,8,2,15,4,26,0.33,8,Rain,255
2011-12-28,44,38,32,36,32,28,93,76,53,30.11,30.05,29.93,10,10,7,21,6,28,0.00,4,Rain,299
2011-12-29,53,40,26,37,33,27,100,75,51,30.06,29.98,29.91,10,8,0,13,3,18,0.00,1,Fog,184
2011-12-30,59,46,33,52,43,34,100,76,62,30.00,29.90,29.78,10,10,7,17,4,31,0.00,3,,206
2011-12-31,60,48,35,43,40,36,100,73,45,30.12,30.05,29.87,10,10,7,10,3,17,0.00,1,,278